Have a Safe July 4th! 

Flight Track Log - Related Links

Times and Time Zones

All times are in EDT time to prevent confusion due to time zone crossing. See the JBU161 flight status page for this flight to view local times or setup timezone preferences in your user account.

Time Position Orientation Groundspeed Altitude Reporting Facility
EDT Latitude Longitude Course Direction KTS MPH feet Rate Location/Type
Fri 08:23:50 PM 40.6833 -73.7000 304° West 201 231 2,500  Level New York TRACON
Fri 08:24:55 PM 40.7167 -73.6167 62° Northeast 242 278 5,400 2,250 Climbing New York TRACON
Fri 08:25:00 PM 40.7153 -74.2172 315° West  Level Estimated
Fri 08:25:50 PM 40.7500 -73.5500 57° Northeast 269 310 7,000  Level New York TRACON
Fri 08:26:00 PM 40.7402 -74.3635 304° West  Level Estimated
Fri 08:26:55 PM 40.8167 -73.5000 30° Northeast 271 312 7,000  Level New York TRACON
Fri 08:27:00 PM 40.7648 -74.5099 323° Northwest  Level Estimated
Fri 08:27:50 PM 40.8833 -73.4667 21° North 282 325 7,100  Level New York TRACON
Fri 08:28:00 PM 40.7893 -74.6564 288° West  Level Estimated
Fri 08:28:50 PM 40.9667 -73.5000 343° North 291 335 9,600  Level New York TRACON
Fri 08:29:00 PM 40.8135 -74.8031 304° West  Level Estimated
Fri 08:30:39 PM 41.0428 -73.6708 301° West 335 386 13,200  Level New York Center
Fri 08:31:39 PM 41.0711 -73.7875 288° West 335 386 15,000 1,800 Climbing New York Center
Fri 08:32:39 PM 41.0800 -73.9228 275° West 356 410 16,800 1,350 Climbing New York Center
Fri 08:33:39 PM 41.1011 -74.0614 281° West 377 434 17,700 750 Climbing New York Center
Fri 08:34:39 PM 41.1408 -74.2039 290° West 407 468 18,300 550 Climbing New York Center
Fri 08:35:39 PM 41.1783 -74.3464 289° West 415 478 18,800 700 Climbing New York Center
Fri 08:36:39 PM 41.2175 -74.4892 290° West 410 472 19,700 1,200 Climbing New York Center
Fri 08:37:39 PM 41.2567 -74.6375 289° West 410 472 21,200 1,500 Climbing New York Center
Fri 08:38:39 PM 41.2953 -74.7861 289° West 421 484 22,700 1,450 Climbing New York Center
Fri 08:39:39 PM 41.3303 -74.9208 289° West 438 504 24,100 1,250 Climbing New York Center
Fri 08:40:39 PM 41.3708 -75.0725 290° West 433 498 25,200 1,100 Climbing New York Center
Fri 08:41:39 PM 41.4089 -75.2217 289° West 433 498 26,300 1,050 Climbing New York Center
Fri 08:42:39 PM 41.4486 -75.3792 289° West 438 504 27,300 1,000 Climbing New York Center
Fri 08:43:39 PM 41.4886 -75.5314 289° West 438 504 28,300 1,000 Climbing New York Center
Fri 08:44:39 PM 41.5344 -75.6844 292° West 438 504 29,300 1,000 Climbing New York Center
Fri 08:45:39 PM 41.5797 -75.8403 291° West 438 504 30,300 950 Climbing New York Center
Fri 08:46:39 PM 41.6211 -75.9933 290° West 438 504 31,200 850 Climbing New York Center
Fri 08:47:39 PM 41.6644 -76.1439 291° West 438 504 32,000 400 Climbing New York Center
Fri 08:48:39 PM 41.7075 -76.2917 291° West 438 504 32,000  Level New York Center
Fri 08:49:39 PM 41.7464 -76.4422 289° West 438 504 32,000  Level New York Center
Fri 08:51:35 PM 41.8325 -76.7506 291° West 435 501 32,000  Level Cleveland Center
Fri 08:52:37 PM 41.8753 -76.9036 291° West 436 502 32,000  Level Cleveland Center
Fri 08:53:39 PM 41.9172 -77.0578 290° West 439 505 32,000  Level Cleveland Center
Fri 08:54:41 PM 41.9592 -77.2122 290° West 440 506 32,000  Level Cleveland Center
Fri 08:55:43 PM 42.0006 -77.3692 290° West 444 511 32,000  Level Cleveland Center
Fri 08:56:45 PM 42.0428 -77.5247 290° West 443 510 32,000  Level Cleveland Center
Fri 08:57:46 PM 42.0842 -77.6803 290° West 440 506 32,000  Level Cleveland Center
Fri 08:58:48 PM 42.1253 -77.8358 290° West 440 506 32,000  Level Cleveland Center
Fri 08:59:50 PM 42.1747 -78.0258 289° West 444 511 32,000  Level Cleveland Center
Fri 09:00:52 PM 42.2150 -78.1819 289° West 438 504 32,000  Level Cleveland Center
Fri 09:01:53 PM 42.2556 -78.3406 289° West 444 511 32,000  Level Cleveland Center
Fri 09:02:55 PM 42.2950 -78.4969 289° West 442 509 32,000  Level Cleveland Center
Fri 09:03:57 PM 42.3347 -78.6531 289° West 440 506 32,000  Level Cleveland Center
Fri 09:04:58 PM 42.3739 -78.8100 289° West 439 505 32,000  Level Cleveland Center
Fri 09:06:00 PM 42.4153 -78.9722 289° West 441 507 32,000  Level Cleveland Center
Fri 09:07:01 PM 42.4581 -79.1389 289° West 436 502 32,000  Level Cleveland Center
Fri 09:08:03 PM 42.4931 -79.3119 285° West 436 502 32,000  Level Cleveland Center
Fri 09:09:05 PM 42.5014 -79.4761 274° West 438 504 32,000  Level Cleveland Center
Fri 09:10:06 PM 42.5097 -79.6422 274° West 442 509 32,000  Level Cleveland Center
Fri 09:11:08 PM 42.5172 -79.8075 274° West 441 507 32,000  Level Cleveland Center
Fri 09:12:10 PM 42.5233 -79.9792 273° West 442 509 32,000  Level Cleveland Center
Fri 09:13:11 PM 42.5303 -80.1581 273° West 440 506 32,000  Level Cleveland Center
Fri 09:14:13 PM 42.5364 -80.3250 273° West 441 507 32,000  Level Cleveland Center
Fri 09:15:15 PM 42.5442 -80.4933 274° West 444 511 32,000  Level Cleveland Center
Fri 09:16:16 PM 42.5508 -80.6592 273° West 441 507 32,000  Level Cleveland Center
Fri 09:17:18 PM 42.5572 -80.8314 273° West 452 520 32,000  Level Cleveland Center
Fri 09:18:20 PM 42.5628 -80.9975 273° West 443 510 32,000  Level Cleveland Center
Fri 09:19:21 PM 42.5692 -81.1636 273° West 440 506 32,000  Level Cleveland Center
Fri 09:20:23 PM 42.5750 -81.3311 273° West 441 507 32,000  Level Cleveland Center
Fri 09:21:24 PM 42.5872 -81.4958 276° West 438 504 32,000  Level Cleveland Center
Fri 09:22:26 PM 42.6231 -81.6825 285° West 436 502 32,000  Level Cleveland Center
Fri 09:23:28 PM 42.6478 -81.8300 283° West 436 502 32,000  Level Cleveland Center
Fri 09:24:29 PM 42.6767 -81.9908 284° West 440 506 32,000  Level Cleveland Center
Fri 09:25:31 PM 42.7044 -82.1525 283° West 439 505 32,000  Level Cleveland Center
Fri 09:26:32 PM 42.7375 -82.3447 283° West 439 505 32,000  Level Cleveland Center
Fri 09:27:34 PM 42.7642 -82.5069 283° West 441 507 32,000  Level Cleveland Center
Fri 09:28:35 PM 42.7914 -82.6669 283° West 437 503 32,000  Level Cleveland Center
Fri 09:29:37 PM 42.8186 -82.8261 283° West 435 501 32,000  Level Cleveland Center
Fri 09:30:38 PM 42.8453 -82.9853 283° West 435 501 32,000  Level Cleveland Center
Fri 09:31:40 PM 42.8703 -83.1422 282° West 430 495 32,000  Level Cleveland Center
Fri 09:32:41 PM 42.8956 -83.2992 282° West 427 491 32,000  Level Cleveland Center
Fri 09:33:43 PM 42.9250 -83.4911 282° West 433 498 32,000  Level Cleveland Center
Fri 09:34:44 PM 42.9514 -83.6514 283° West 438 504 32,000  Level Cleveland Center
Fri 09:35:46 PM 42.9731 -83.8133 280° West 438 504 32,000 48 Level Cleveland Center
Fri 09:36:48 PM 42.9903 -83.9769 278° West 438 504 32,100  Climbing Cleveland Center
Fri 09:37:49 PM 43.0058 -84.1403 277° West 437 503 32,000 -49 Descending Cleveland Center
Fri 09:38:51 PM 43.0231 -84.3033 278° West 436 502 32,000  Level Cleveland Center
Fri 09:39:52 PM 43.0397 -84.4778 278° West 433 498 32,000  Level Cleveland Center
Fri 09:40:54 PM 43.0558 -84.6411 278° West 435 501 32,000  Level Cleveland Center
Fri 09:41:55 PM 43.0708 -84.8031 277° West 431 496 32,000  Level Cleveland Center
Fri 09:47:31 PM 43.1500 -85.6880 277° West 100 115 32,000  Level FlightAware ADS-B
Fri 09:48:08 PM 43.1520 -85.7080 278° West 100 115 32,000  Level FlightAware ADS-B
Fri 09:48:44 PM 43.1540 -85.7270 278° West 100 115 32,000  Level FlightAware ADS-B
Fri 09:49:19 PM 43.1560 -85.7460 278° West 100 115 32,000  Level FlightAware ADS-B
Fri 09:49:55 PM 43.1580 -85.7650 278° West 100 115 32,000  Level FlightAware ADS-B
Fri 09:50:31 PM 43.1600 -85.7850 278° West 100 115 32,000  Level FlightAware ADS-B
Fri 09:51:07 PM 43.1620 -85.8040 278° West 100 115 32,000  Level FlightAware ADS-B
Fri 09:51:43 PM 43.1640 -85.8230 278° West 100 115 32,000  Level FlightAware ADS-B
Fri 09:52:19 PM 43.1660 -85.8420 278° West 100 115 32,000  Level FlightAware ADS-B
Fri 09:52:55 PM 43.1680 -85.8610 278° West 100 115 32,000  Level FlightAware ADS-B
Fri 09:53:31 PM 43.1700 -85.8810 278° West 100 115 32,000  Level FlightAware ADS-B
Fri 09:54:08 PM 43.1720 -85.9000 278° West 100 115 32,000  Level FlightAware ADS-B
Fri 09:54:45 PM 43.1740 -85.9200 278° West 100 115 32,000  Level FlightAware ADS-B
Fri 09:55:21 PM 43.1760 -85.9390 278° West 100 115 32,000  Level FlightAware ADS-B
Fri 09:55:57 PM 43.1780 -85.9590 278° West 100 115 32,000  Level FlightAware ADS-B
Fri 09:56:31 PM 43.1790 -85.9770 274° West 100 115 32,000  Level FlightAware ADS-B
Fri 09:57:07 PM 43.1810 -85.9960 278° West 100 115 32,000  Level FlightAware ADS-B
Fri 10:02:41 PM 43.1250 -88.1250 269° West 100 115 32,000  Level FlightAware ADS-B
Fri 10:03:16 PM 43.1190 -88.2230 265° West 417 480 32,000  Level FlightAware ADS-B
Fri 10:03:53 PM 43.1200 -88.3110 271° West 417 480 32,000  Level FlightAware ADS-B
Fri 10:04:26 PM 43.1190 -88.4100 269° West 420 483 32,000  Level FlightAware ADS-B
Fri 10:05:05 PM 43.1250 -88.4980 275° West 420 483 32,000  Level FlightAware ADS-B
Fri 10:05:41 PM 43.1300 -88.5790 275° West 420 483 32,000  Level FlightAware ADS-B
Fri 10:06:26 PM 43.1240 -88.7270 267° West 428 493 32,000  Level FlightAware ADS-B
Fri 10:07:27 PM 43.1210 -88.8800 269° West 407 468 32,000  Level FlightAware ADS-B
Fri 10:08:13 PM 43.1240 -88.9940 272° West 409 471 32,000  Level FlightAware ADS-B
Fri 10:08:49 PM 43.1230 -89.0730 269° West 409 471 32,000  Level FlightAware ADS-B
Fri 10:09:25 PM 43.1220 -89.1520 269° West 409 471 32,000  Level FlightAware ADS-B
Fri 10:10:01 PM 43.1210 -89.2320 269° West 409 471 32,000  Level FlightAware ADS-B
Fri 10:10:37 PM 43.1200 -89.3110 269° West 409 471 32,000  Level FlightAware ADS-B
Fri 10:11:23 PM 43.1180 -89.4120 268° West 409 471 32,000  Level FlightAware ADS-B
Fri 10:11:59 PM 43.1170 -89.4920 269° West 409 471 32,000  Level FlightAware ADS-B
Fri 10:12:35 PM 43.1160 -89.5710 269° West 409 471 32,000  Level FlightAware ADS-B
Fri 10:13:12 PM 43.1150 -89.6520 269° West 409 471 32,000  Level FlightAware ADS-B
Fri 10:13:48 PM 43.1140 -89.7320 269° West 409 471 32,000  Level FlightAware ADS-B
Fri 10:14:24 PM 43.1130 -89.8110 269° West 409 471 32,000  Level FlightAware ADS-B
Fri 10:15:00 PM 43.1120 -89.8900 269° West 409 471 32,000  Level FlightAware ADS-B
Fri 10:15:36 PM 43.1110 -89.9700 269° West 409 471 32,000  Level FlightAware ADS-B
Fri 10:16:12 PM 43.1100 -90.0490 269° West 409 471 32,000  Level FlightAware ADS-B
Fri 10:16:49 PM 43.1090 -90.1300 269° West 409 471 32,000  Level FlightAware ADS-B
Fri 10:17:25 PM 43.1080 -90.2100 269° West 409 471 32,000  Level FlightAware ADS-B
Fri 10:17:59 PM 43.1325 -90.5603 269° West 407 468 32,000  Level Chicago Center
Fri 10:19:00 PM 43.1325 -90.7150 270° West 410 472 32,000  Level Chicago Center
Fri 10:20:02 PM 43.1317 -90.8706 270° West 412 474 32,000  Level Chicago Center
Fri 10:21:03 PM 43.1317 -91.0539 270° West 409 471 32,000  Level Chicago Center
Fri 10:22:05 PM 43.1303 -91.2083 269° West 410 472 32,000  Level Chicago Center
Fri 10:23:06 PM 43.1292 -91.3611 269° West 409 471 32,000  Level Chicago Center
Fri 10:24:00 PM 43.1294 -91.5136 270° West 409 471 32,000  Level Minneapolis Center
Fri 10:25:01 PM 43.1278 -91.6650 269° West 407 468 32,000  Level Minneapolis Center
Fri 10:26:02 PM 43.1244 -91.8178 268° West 409 471 32,000  Level Minneapolis Center
Fri 10:27:03 PM 43.1222 -91.9694 269° West 408 470 32,000  Level Minneapolis Center
Fri 10:28:04 PM 43.1197 -92.1194 269° West 403 464 32,000  Level Minneapolis Center
Fri 10:29:05 PM 43.1181 -92.2714 269° West 403 464 32,000  Level Minneapolis Center
Fri 10:30:06 PM 43.1142 -92.4547 268° West 407 468 32,000  Level Minneapolis Center
Fri 10:31:07 PM 43.1106 -92.6089 268° West 410 472 32,000  Level Minneapolis Center
Fri 10:32:09 PM 43.1078 -92.7631 269° West 410 472 32,000  Level Minneapolis Center
Fri 10:33:10 PM 43.1039 -92.9169 268° West 410 472 32,000 98 Level Minneapolis Center
Fri 10:34:11 PM 43.1006 -93.0708 268° West 409 471 32,200 344 Climbing Minneapolis Center
Fri 10:35:12 PM 43.0972 -93.2228 268° West 406 467 32,700 492 Climbing Minneapolis Center
Fri 10:36:13 PM 43.1022 -93.3747 273° West 403 464 33,200 492 Climbing Minneapolis Center
Fri 10:37:14 PM 43.1292 -93.5283 284° West 418 481 33,700 393 Climbing Minneapolis Center
Fri 10:38:15 PM 43.1622 -93.7178 284° West 429 494 34,000 148 Climbing Minneapolis Center
Fri 10:39:16 PM 43.1883 -93.8756 283° West 428 493 34,000  Level Minneapolis Center
Fri 10:40:17 PM 43.2153 -94.0325 283° West 426 490 34,000  Level Minneapolis Center
Fri 10:41:18 PM 43.2406 -94.1864 283° West 420 483 34,000  Level Minneapolis Center
Fri 10:42:19 PM 43.2678 -94.3333 284° West 410 472 34,000  Level Minneapolis Center
Fri 10:43:21 PM 43.2925 -94.4842 283° West 406 467 34,000  Level Minneapolis Center
Fri 10:44:22 PM 43.3189 -94.6356 284° West 407 468 34,000  Level Minneapolis Center
Fri 10:45:23 PM 43.3478 -94.8167 282° West 406 467 34,000  Level Minneapolis Center
Fri 10:46:24 PM 43.3725 -94.9697 283° West 410 472 34,000  Level Minneapolis Center
Fri 10:47:25 PM 43.3972 -95.1225 283° West 410 472 34,000  Level Minneapolis Center
Fri 10:48:26 PM 43.4219 -95.2764 283° West 412 474 34,000  Level Minneapolis Center
Fri 10:49:27 PM 43.4461 -95.4292 282° West 410 472 34,000  Level Minneapolis Center
Fri 10:50:28 PM 43.4700 -95.5836 282° West 411 473 34,000  Level Minneapolis Center
Fri 10:51:29 PM 43.4942 -95.7386 282° West 413 475 34,000  Level Minneapolis Center
Fri 10:52:31 PM 43.5178 -95.8956 282° West 416 479 34,000  Level Minneapolis Center
Fri 10:53:32 PM 43.5425 -96.0564 282° West 424 488 34,000  Level Minneapolis Center
Fri 10:54:33 PM 43.5667 -96.2172 282° West 427 491 34,000 49 Level Minneapolis Center
Fri 10:55:34 PM 43.5903 -96.3781 282° West 427 491 34,100  Climbing Minneapolis Center
Fri 10:56:35 PM 43.6150 -96.5389 282° West 427 491 34,000 -49 Descending Minneapolis Center
Fri 10:57:36 PM 43.6372 -96.6964 281° West 421 484 34,000  Level Minneapolis Center
Fri 10:58:37 PM 43.6564 -96.8547 280° West 418 481 34,000  Level Minneapolis Center
Fri 10:59:39 PM 43.6697 -97.0439 276° West 414 476 34,000  Level Minneapolis Center
Fri 11:00:40 PM 43.6822 -97.2033 276° West 417 480 34,000  Level Minneapolis Center
Fri 11:01:41 PM 43.6944 -97.3625 276° West 416 479 34,000  Level Minneapolis Center
Fri 11:02:43 PM 43.7064 -97.5239 276° West 421 484 34,000  Level Minneapolis Center
Fri 11:03:44 PM 43.7183 -97.6856 276° West 424 488 34,000  Level Minneapolis Center
Fri 11:04:45 PM 43.7300 -97.8506 276° West 429 494 34,000 49 Level Minneapolis Center
Fri 11:05:46 PM 43.7414 -98.0175 275° West 435 501 34,100 49 Climbing Minneapolis Center
Fri 11:06:47 PM 43.7525 -98.1844 275° West 438 504 34,100 -49 Level Minneapolis Center
Fri 11:07:48 PM 43.7642 -98.3511 276° West 436 502 34,000 -49 Descending Minneapolis Center
Fri 11:08:49 PM 43.7742 -98.5172 275° West 435 501 34,000  Level Minneapolis Center
Fri 11:09:50 PM 43.7861 -98.6931 275° West 429 494 34,000  Level Minneapolis Center
Fri 11:10:51 PM 43.7964 -98.8556 275° West 425 489 34,000  Level Minneapolis Center
Fri 11:11:52 PM 43.8056 -99.0181 275° West 424 488 34,000  Level Minneapolis Center
Fri 11:12:53 PM 43.8156 -99.1797 275° West 423 487 34,000  Level Minneapolis Center
Fri 11:13:54 PM 43.8247 -99.3447 274° West 427 491 34,000 49 Level Minneapolis Center
Fri 11:14:55 PM 43.8342 -99.5089 275° West 427 491 34,100  Climbing Minneapolis Center
Fri 11:15:56 PM 43.8442 -99.6753 275° West 431 496 34,000 -49 Descending Minneapolis Center
Fri 11:16:57 PM 43.8544 -99.8719 274° West 429 494 34,000  Level Minneapolis Center
Fri 11:17:58 PM 43.8628 -100.0358 274° West 427 491 34,000  Level Minneapolis Center
Fri 11:19:00 PM 43.8708 -100.1986 274° West 425 489 34,000  Level Minneapolis Center
Fri 11:20:01 PM 43.8781 -100.3633 274° West 426 490 34,000  Level Minneapolis Center
Fri 11:21:02 PM 43.8867 -100.5269 274° West 425 489 34,000  Level Minneapolis Center
Fri 11:22:03 PM 43.8933 -100.6889 273° West 424 488 34,000  Level Minneapolis Center
Fri 11:23:04 PM 43.9014 -100.8522 274° West 423 487 34,000  Level Minneapolis Center
Fri 11:24:05 PM 43.9081 -101.0172 273° West 425 489 34,000 50 Level Minneapolis Center
Fri 11:25:05 PM 43.9150 -101.1825 273° West 428 493 34,100  Climbing Minneapolis Center
Fri 11:26:06 PM 43.9217 -101.3453 273° West 426 490 34,000 -53 Descending Minneapolis Center
Fri 11:26:59 PM 43.9250 -101.4664 272° West 409 471 34,000  Level Denver Center
Fri 11:28:00 PM 43.9322 -101.6528 273° West 404 465 34,000  Level Denver Center
Fri 11:29:02 PM 43.9375 -101.8103 273° West 406 467 34,000  Level Denver Center
Fri 11:30:03 PM 43.9417 -101.9672 272° West 408 470 34,000  Level Denver Center
Fri 11:31:05 PM 43.9478 -102.1253 273° West 409 471 34,000  Level Denver Center
Fri 11:32:06 PM 43.9525 -102.2817 272° West 407 468 34,000  Level Denver Center
Fri 11:33:07 PM 43.9592 -102.4406 273° West 410 472 34,000  Level Denver Center
Fri 11:34:09 PM 43.9639 -102.6025 272° West 415 478 34,000 49 Level Denver Center
Fri 11:35:10 PM 43.9706 -102.7656 273° West 420 483 34,100  Climbing Denver Center
Fri 11:36:12 PM 43.9750 -102.9475 272° West 418 481 34,000  Descending Denver Center
Fri 11:37:13 PM 43.9769 -103.0975 271° West 412 474 34,100  Climbing Denver Center
Fri 11:38:14 PM 43.9817 -103.2736 272° West 410 472 34,000 -49 Descending Denver Center
Fri 11:39:16 PM 43.9833 -103.4206 271° West 404 465 34,000  Level Denver Center
Fri 11:40:17 PM 43.9864 -103.5689 272° West 402 463 34,000  Level Denver Center
Fri 11:41:18 PM 43.9894 -103.7403 271° West 401 461 34,000  Level Denver Center
Fri 11:42:20 PM 43.9911 -103.8903 271° West 405 466 34,000  Level Denver Center
Fri 11:43:21 PM 43.9936 -104.0697 271° West 417 480 34,000  Level Denver Center
Fri 11:44:22 PM 43.9958 -104.2225 271° West 416 479 34,000  Level Denver Center
Fri 11:45:23 PM 43.9972 -104.3686 271° West 402 463 34,000  Level Denver Center
Fri 11:46:25 PM 43.9994 -104.5433 271° West 404 465 34,000  Level Denver Center
Fri 11:47:26 PM 44.0003 -104.6936 270° West 406 467 34,000  Level Denver Center
Fri 11:48:27 PM 44.0019 -104.8689 271° West 407 468 34,000  Level Denver Center
Fri 11:49:28 PM 44.0025 -105.0189 270° West 407 468 34,000  Level Denver Center
Fri 11:50:30 PM 44.0033 -105.1714 270° West 411 473 34,000 49 Level Denver Center
Fri 11:51:31 PM 44.0036 -105.3511 270° West 416 479 34,100 49 Climbing Denver Center
Fri 11:52:32 PM 44.0036 -105.5036 270° West 415 478 34,100 -49 Level Denver Center
Fri 11:53:33 PM 44.0039 -105.6833 270° West 417 480 34,000 -49 Descending Denver Center
Fri 11:54:35 PM 44.0042 -105.8350 270° West 414 476 34,000  Level Denver Center
Fri 11:55:36 PM 44.0017 -105.9881 269° West 413 475 34,000  Level Denver Center
Fri 11:56:37 PM 44.0022 -106.1606 270° West 406 467 34,000 49 Level Denver Center
Fri 11:57:38 PM 44.0006 -106.3111 269° West 406 467 34,100 176 Climbing Denver Center
Fri 11:58:19 PM 43.9950 -106.4086 266° West 404 465 34,300 471 Climbing Salt Lake Center
Fri 11:59:20 PM 43.9606 -106.5758 254° West 404 465 34,900 537 Climbing Salt Lake Center
Sat 12:00:22 AM 43.9214 -106.7158 249° West 406 467 35,400 492 Climbing Salt Lake Center
Sat 12:01:22 AM 43.8753 -106.8792 249° West 407 468 35,900 295 Climbing Salt Lake Center
Sat 12:02:24 AM 43.8317 -107.0264 248° West 409 471 36,000 49 Climbing Salt Lake Center
Sat 12:03:25 AM 43.7908 -107.1725 249° West 406 467 36,000  Level Salt Lake Center
Sat 12:04:26 AM 43.7500 -107.3169 249° West 404 465 36,000  Level Salt Lake Center
Sat 12:05:27 AM 43.7094 -107.4606 249° West 400 460 36,000  Level Salt Lake Center
Sat 12:06:28 AM 43.6672 -107.6053 248° West 404 465 36,000 49 Level Salt Lake Center
Sat 12:07:29 AM 43.6244 -107.7525 248° West 411 473 36,100  Climbing Salt Lake Center
Sat 12:08:31 AM 43.5814 -107.8981 248° West 411 473 36,000 -49 Descending Salt Lake Center
Sat 12:09:32 AM 43.5397 -108.0453 249° West 411 473 36,000  Level Salt Lake Center
Sat 12:10:33 AM 43.4950 -108.1897 247° West 411 473 36,000 49 Level Salt Lake Center
Sat 12:11:34 AM 43.4522 -108.3356 248° West 411 473 36,100 49 Climbing Salt Lake Center
Sat 12:12:35 AM 43.4122 -108.4811 249° West 408 470 36,100 -49 Level Salt Lake Center
Sat 12:13:37 AM 43.3728 -108.6208 249° West 397 457 36,000 -49 Descending Salt Lake Center
Sat 12:14:38 AM 43.3242 -108.7906 249° West 398 458 36,000  Level Salt Lake Center
Sat 12:15:39 AM 43.2833 -108.9367 249° West 408 470 36,000  Level Salt Lake Center
Sat 12:16:41 AM 43.2408 -109.0803 248° West 408 470 36,000 49 Level Salt Lake Center
Sat 12:17:42 AM 43.1997 -109.2264 249° West 410 472 36,100  Climbing Salt Lake Center
Sat 12:18:43 AM 43.1569 -109.3681 248° West 406 467 36,000 -49 Descending Salt Lake Center
Sat 12:19:44 AM 43.1161 -109.5100 249° West 402 463 36,000  Level Salt Lake Center
Sat 12:20:45 AM 43.0753 -109.6472 248° West 395 455 36,000  Level Salt Lake Center
Sat 12:21:47 AM 43.0356 -109.7828 248° West 387 445 36,000  Level Salt Lake Center
Sat 12:22:48 AM 42.9939 -109.9214 248° West 383 441 36,000  Level Salt Lake Center
Sat 12:23:49 AM 42.9486 -110.0731 248° West 385 443 36,000  Level Salt Lake Center
Sat 12:24:50 AM 42.9092 -110.2014 247° West 384 442 36,000 49 Level Salt Lake Center
Sat 12:25:52 AM 42.8700 -110.3319 248° West 387 445 36,100  Climbing Salt Lake Center
Sat 12:26:53 AM 42.8242 -110.4842 248° West 388 447 36,000 -49 Descending Salt Lake Center
Sat 12:27:54 AM 42.7847 -110.6136 247° West 386 444 36,000  Level Salt Lake Center
Sat 12:28:55 AM 42.7389 -110.7625 247° West 383 441 36,000  Level Salt Lake Center
Sat 12:29:57 AM 42.6967 -110.8975 247° West 384 442 36,000  Level Salt Lake Center
Sat 12:30:58 AM 42.6547 -111.0306 247° West 386 444 36,000  Level Salt Lake Center
Sat 12:31:59 AM 42.6128 -111.1622 247° West 382 440 36,000  Level Salt Lake Center
Sat 12:33:00 AM 42.5717 -111.2961 247° West 385 443 36,000  Level Salt Lake Center
Sat 12:34:01 AM 42.5292 -111.4281 246° West 383 441 36,000  Level Salt Lake Center
Sat 12:35:02 AM 42.4875 -111.5586 247° West 381 438 36,000  Level Salt Lake Center
Sat 12:36:04 AM 42.4461 -111.6900 247° West 381 438 36,000  Level Salt Lake Center
Sat 12:37:05 AM 42.4036 -111.8208 246° West 382 440 36,000  Level Salt Lake Center
Sat 12:38:06 AM 42.3617 -111.9514 247° West 381 438 36,000  Level Salt Lake Center
Sat 12:39:07 AM 42.3106 -112.1083 246° West 380 437 36,000  Level Salt Lake Center
Sat 12:40:08 AM 42.2681 -112.2400 246° West 383 441 36,000  Level Salt Lake Center
Sat 12:41:09 AM 42.2253 -112.3689 246° West 380 437 36,000  Level Salt Lake Center
Sat 12:42:10 AM 42.1822 -112.5006 246° West 383 441 36,000  Level Salt Lake Center
Sat 12:43:11 AM 42.1381 -112.6300 245° Southwest 382 440 36,000  Level Salt Lake Center
Sat 12:44:13 AM 42.0942 -112.7608 246° West 385 443 36,000  Level Salt Lake Center
Sat 12:49:53 AM 41.8746 -113.4988 246° West 36,000  Level FlightAware ADS-B
Sat 12:50:11 AM 41.8530 -113.5169 212° Southwest 306 352 36,000  Level FlightAware ADS-B
Sat 12:50:23 AM 41.1718 -112.6424 136° Southeast 36,000  Level FlightAware ADS-B
Sat 12:51:20 AM 41.7722 -113.6919 136° Southeast 382 440 36,000  Level Salt Lake Center
Sat 12:52:21 AM 41.7272 -113.8189 245° Southwest 380 437 36,000  Level Salt Lake Center
Sat 12:53:22 AM 41.6797 -113.9503 244° Southwest 388 447 36,000  Level Salt Lake Center
Sat 12:54:23 AM 41.6331 -114.0836 245° Southwest 395 455 36,000  Level Salt Lake Center
Sat 12:55:24 AM 41.5856 -114.2158 244° Southwest 397 457 36,000  Level Salt Lake Center
Sat 12:56:25 AM 41.5372 -114.3497 244° Southwest 399 459 36,000  Level Salt Lake Center
Sat 12:57:26 AM 41.4897 -114.4819 244° Southwest 398 458 36,000  Level Salt Lake Center
Sat 12:58:27 AM 41.4431 -114.6147 245° Southwest 398 458 36,000  Level Salt Lake Center
Sat 12:59:28 AM 41.3836 -114.7733 243° Southwest 399 459 36,000  Level Salt Lake Center
Sat 01:00:29 AM 41.3392 -114.8958 244° Southwest 396 456 36,000  Level Salt Lake Center
Sat 01:01:29 AM 41.2928 -115.0219 244° Southwest 397 457 36,000  Level Salt Lake Center
Sat 01:02:30 AM 41.2381 -115.1672 243° Southwest 393 452 36,000  Level Salt Lake Center
Sat 01:03:31 AM 41.1917 -115.2900 243° Southwest 391 450 36,000  Level Salt Lake Center
Sat 01:04:32 AM 41.1469 -115.4147 245° Southwest 390 449 36,000  Level Salt Lake Center
Sat 01:05:33 AM 41.0925 -115.5589 243° Southwest 391 450 36,000  Level Salt Lake Center
Sat 01:06:33 AM 41.0453 -115.6833 243° Southwest 394 453 36,000  Level Salt Lake Center
Sat 01:07:34 AM 40.9983 -115.8089 244° Southwest 395 455 36,000  Level Salt Lake Center
Sat 01:08:35 AM 40.9433 -115.9547 244° Southwest 397 457 36,000  Level Salt Lake Center
Sat 01:09:36 AM 40.8956 -116.0789 243° Southwest 397 457 36,000  Level Salt Lake Center
Sat 01:10:37 AM 40.8481 -116.2042 243° Southwest 397 457 36,000  Level Salt Lake Center
Sat 01:11:37 AM 40.7917 -116.3497 243° Southwest 399 459 36,000  Level Salt Lake Center
Sat 01:12:38 AM 40.7436 -116.4747 243° Southwest 399 459 36,000  Level Salt Lake Center
Sat 01:13:39 AM 40.6956 -116.5983 243° Southwest 398 458 36,000  Level Salt Lake Center
Sat 01:14:40 AM 40.6394 -116.7425 243° Southwest 397 457 36,000  Level Salt Lake Center
Sat 01:15:41 AM 40.5906 -116.8658 242° Southwest 399 459 36,000  Level Salt Lake Center
Sat 01:16:41 AM 40.5447 -117.0142 248° West 400 460 36,000  Level Salt Lake Center
Sat 01:17:42 AM 40.5111 -117.1456 251° West 401 461 36,000  Level Salt Lake Center
Sat 01:18:42 AM 40.4767 -117.2764 251° West 400 460 36,000  Level Salt Lake Center
Sat 01:19:43 AM 40.4361 -117.4275 251° West 396 456 36,000  Level Salt Lake Center
Sat 01:20:44 AM 40.4011 -117.5567 250° West 394 453 36,000  Level Salt Lake Center
Sat 01:21:44 AM 40.3664 -117.6861 251° West 393 452 36,000  Level Salt Lake Center
Sat 01:22:45 AM 40.3272 -117.8331 251° West 387 445 36,000  Level Salt Lake Center
Sat 01:23:27 AM 40.3047 -117.9214 252° West 390 449 36,000  Level Oakland Center
Sat 01:24:28 AM 40.2675 -118.0569 250° West 387 445 36,000  Level Oakland Center
Sat 01:25:28 AM 40.2336 -118.1928 252° West 389 448 36,000  Level Oakland Center
Sat 01:26:29 AM 40.1958 -118.3264 250° West 392 451 36,000  Level Oakland Center
Sat 01:27:30 AM 40.1522 -118.4561 246° West 392 451 36,000  Level Oakland Center
Sat 01:28:30 AM 40.0994 -118.5822 241° Southwest 396 456 36,000  Level Oakland Center
Sat 01:29:31 AM 40.0472 -118.7067 241° Southwest 394 453 36,000  Level Oakland Center
Sat 01:30:31 AM 39.9953 -118.8336 242° Southwest 397 457 36,000  Level Oakland Center
Sat 01:31:32 AM 39.9431 -118.9581 241° Southwest 395 455 36,000  Level Oakland Center
Sat 01:32:33 AM 39.8906 -119.0825 241° Southwest 394 453 36,000 -248 Level Oakland Center
Sat 01:33:33 AM 39.8278 -119.2317 241° Southwest 395 455 35,500 -744 Descending Oakland Center
Sat 01:34:34 AM 39.7756 -119.3542 241° Southwest 392 451 34,500 -1,240 Descending Oakland Center
Sat 01:35:34 AM 39.7222 -119.4806 241° Southwest 399 459 33,000 -1,488 Descending Oakland Center
Sat 01:36:35 AM 39.6669 -119.6108 241° Southwest 412 474 31,500 -1,475 Descending Oakland Center
Sat 01:37:36 AM 39.6111 -119.7422 241° Southwest 417 480 30,000 -1,537 Descending Oakland Center
Sat 01:38:36 AM 39.5547 -119.8764 241° Southwest 425 489 28,400 -1,785 Descending Oakland Center
Sat 01:39:37 AM 39.4964 -120.0061 240° Southwest 419 482 26,400 -2,033 Descending Oakland Center
Sat 01:40:37 AM 39.4389 -120.1422 241° Southwest 413 475 24,300 -2,033 Descending Oakland Center
Sat 01:41:38 AM 39.3844 -120.2689 241° Southwest 405 466 22,300 -1,934 Descending Oakland Center
Sat 01:42:38 AM 39.3297 -120.3936 240° Southwest 401 461 20,400 -2,033 Descending Oakland Center
Sat 01:43:39 AM 39.2767 -120.5164 241° Southwest 393 452 18,200 -1,983 Descending Oakland Center
Sat 01:44:39 AM 39.2239 -120.6339 240° Southwest 381 438 16,400 -1,091 Descending Oakland Center
Sat 01:45:40 AM 39.1736 -120.7503 241° Southwest 373 429 16,000 -694 Descending Oakland Center
Sat 01:46:40 AM 39.1228 -120.8647 240° Southwest 370 426 15,000 -1,438 Descending Oakland Center
Sat 01:47:41 AM 39.0761 -120.9742 241° Southwest 356 410 13,100 -1,934 Descending Oakland Center
Sat 01:48:41 AM 39.0289 -121.0778 240° Southwest 342 394 11,100 -1,587 Descending Oakland Center
Sat 01:49:42 AM 38.9847 -121.1769 240° Southwest 328 377 9,900 -942 Descending Oakland Center
Sat 01:50:42 AM 38.9447 -121.2653 240° Southwest 298 343 9,200 -1,240 Descending Oakland Center
Sat 01:51:43 AM 38.9075 -121.3494 240° Southwest 277 319 7,400 -1,785 Descending Oakland Center
Sat 01:52:43 AM 38.8894 -121.4367 255° West 261 300 5,600 -1,488 Descending Oakland Center
Sat 01:53:44 AM 38.8833 -121.5211 265° West 241 277 4,400 -1,388 Descending Oakland Center
Sat 01:54:44 AM 38.8631 -121.5764 245° Southwest 197 227 2,800 -1,250 Descending Oakland Center
Sat 01:55:44 AM 38.8189 -121.5989 202° Southwest 181 208 1,900 -791 Descending Oakland Center
Sat 01:56:15 AM 38.8000 -121.6000 183° South 148 170 1,600 -659 Descending Northern Cal TRACON
Sat 01:57:15 AM 38.7500 -121.6000 180° South 147 169 900 -700 Descending Northern Cal TRACON
Sat 01:58:15 AM 38.7167 -121.6000 180° South 135 155 200 -700 Descending Northern Cal TRACON
Sat 02:00:00 AM 38.6954 -121.5908 175° South  Level Estimated

Login

Don't have an account? Register now (free) for customized features, flight alerts, and more!